createdAt,value
2023-05-22T00:01:46.997Z,17.06
2023-05-22T00:04:21.676Z,17.02
2023-05-22T00:06:49.886Z,16.96
2023-05-22T00:09:18.214Z,16.93
2023-05-22T00:11:46.422Z,16.88
2023-05-22T00:14:14.199Z,16.83
2023-05-22T00:16:42.784Z,16.78
2023-05-22T00:19:13.835Z,16.75
2023-05-22T00:21:43.178Z,16.71
2023-05-22T00:24:11.126Z,16.67
2023-05-22T00:26:38.927Z,16.64
2023-05-22T00:29:06.888Z,16.61
2023-05-22T00:31:34.948Z,16.55
2023-05-22T00:34:02.865Z,16.50
2023-05-22T00:36:31.007Z,16.46
2023-05-22T00:39:02.090Z,16.41
2023-05-22T00:41:30.802Z,16.38
2023-05-22T00:43:58.696Z,16.39
2023-05-22T00:46:26.486Z,16.40
2023-05-22T00:48:54.547Z,16.43
2023-05-22T00:51:22.891Z,16.43
2023-05-22T00:53:52.544Z,16.43
2023-05-22T00:56:22.071Z,16.41
2023-05-22T00:58:52.585Z,16.37
2023-05-22T01:01:20.676Z,16.35
2023-05-22T01:03:49.235Z,16.33
2023-05-22T01:06:21.627Z,16.29
2023-05-22T01:08:49.543Z,16.25
2023-05-22T01:11:22.436Z,16.22
2023-05-22T01:13:59.359Z,16.19
2023-05-22T01:16:42.057Z,16.17
2023-05-22T01:19:19.345Z,16.15
2023-05-22T01:22:11.714Z,16.13
2023-05-22T01:24:46.790Z,16.10
2023-05-22T01:27:42.378Z,16.09
2023-05-22T01:30:18.326Z,16.07
2023-05-22T01:32:47.240Z,16.05
2023-05-22T01:35:20.261Z,16.02
2023-05-22T01:37:48.462Z,16.00
2023-05-22T01:40:17.433Z,15.97
2023-05-22T01:42:45.999Z,15.94
2023-05-22T01:45:14.828Z,15.92
2023-05-22T01:47:43.750Z,15.89
2023-05-22T01:50:11.966Z,15.88
2023-05-22T01:52:54.380Z,15.84
2023-05-22T01:55:43.236Z,15.83
2023-05-22T01:58:23.208Z,15.80
2023-05-22T02:00:55.633Z,15.78
2023-05-22T02:03:25.228Z,15.74
2023-05-22T02:05:57.769Z,15.69
2023-05-22T02:08:26.169Z,15.67
2023-05-22T02:10:56.230Z,15.65
2023-05-22T02:13:24.599Z,15.62
2023-05-22T02:15:52.786Z,15.59
2023-05-22T02:18:20.805Z,15.55
2023-05-22T02:20:48.936Z,15.53
2023-05-22T02:23:16.896Z,15.51
2023-05-22T02:25:45.034Z,15.50
2023-05-22T02:28:12.705Z,15.48
2023-05-22T02:30:40.696Z,15.46
2023-05-22T02:33:09.675Z,15.45
2023-05-22T02:35:37.574Z,15.42
2023-05-22T02:38:05.803Z,15.39
2023-05-22T02:40:36.759Z,15.38
2023-05-22T02:43:05.130Z,15.36
2023-05-22T02:45:33.080Z,15.34
2023-05-22T02:48:06.029Z,15.33
2023-05-22T02:50:33.952Z,15.29
2023-05-22T02:53:01.832Z,15.25
2023-05-22T02:55:29.705Z,15.24
2023-05-22T02:57:57.817Z,15.24
2023-05-22T03:00:25.772Z,15.22
2023-05-22T03:02:53.724Z,15.22
2023-05-22T03:05:21.599Z,15.25
2023-05-22T03:07:49.469Z,15.28
2023-05-22T03:10:17.427Z,15.32
2023-05-22T03:12:45.340Z,15.37
2023-05-22T03:15:13.133Z,15.38
2023-05-22T03:17:41.073Z,15.38
2023-05-22T03:20:09.379Z,15.38
2023-05-22T03:22:37.383Z,15.36
2023-05-22T03:25:06.480Z,15.30
2023-05-22T03:27:34.492Z,15.27
2023-05-22T03:30:03.028Z,15.23
2023-05-22T03:32:30.778Z,15.19
2023-05-22T03:34:59.112Z,15.15
2023-05-22T03:37:26.940Z,15.13
2023-05-22T03:39:54.784Z,15.09
2023-05-22T03:42:22.867Z,15.05
2023-05-22T03:44:50.735Z,15.03
2023-05-22T03:47:18.475Z,15.01
2023-05-22T03:49:47.145Z,14.99
2023-05-22T03:52:15.036Z,14.96
2023-05-22T03:54:42.782Z,14.92
2023-05-22T03:57:10.731Z,14.91
2023-05-22T03:59:38.606Z,14.88
2023-05-22T04:02:06.988Z,14.86
2023-05-22T04:04:38.666Z,14.87
2023-05-22T04:07:08.573Z,14.86
2023-05-22T04:09:36.783Z,14.82
2023-05-22T04:12:05.014Z,14.77
2023-05-22T04:14:33.262Z,14.77
2023-05-22T04:17:01.171Z,14.79
2023-05-22T04:19:30.348Z,14.80
2023-05-22T04:21:59.087Z,14.84
2023-05-22T04:24:27.878Z,14.90
2023-05-22T04:26:56.403Z,14.96
2023-05-22T04:29:24.803Z,15.05
2023-05-22T04:31:54.650Z,15.11
2023-05-22T04:34:22.874Z,15.13
2023-05-22T04:36:56.239Z,15.16
2023-05-22T04:39:26.478Z,15.19
2023-05-22T04:41:54.523Z,15.21
2023-05-22T04:44:23.127Z,15.23
2023-05-22T04:46:51.393Z,15.23
2023-05-22T04:49:19.124Z,15.24
2023-05-22T04:51:46.996Z,15.27
2023-05-22T04:54:14.751Z,15.29
2023-05-22T04:56:42.607Z,15.28
2023-05-22T04:59:10.371Z,15.27
2023-05-22T05:01:38.651Z,15.29
2023-05-22T05:04:06.805Z,15.29
2023-05-22T05:06:34.879Z,15.31
2023-05-22T05:09:03.113Z,15.33
2023-05-22T05:11:31.017Z,15.34
2023-05-22T05:13:58.769Z,15.35
2023-05-22T05:16:26.770Z,15.37
2023-05-22T05:18:55.805Z,15.40
2023-05-22T05:21:28.028Z,15.44
2023-05-22T05:23:55.998Z,15.46
2023-05-22T05:26:24.233Z,15.49
2023-05-22T05:28:52.064Z,15.51
2023-05-22T05:31:20.890Z,15.54
2023-05-22T05:33:49.228Z,15.56
2023-05-22T05:36:16.928Z,15.60
2023-05-22T05:38:44.821Z,15.64
2023-05-22T05:41:12.769Z,15.68
2023-05-22T05:43:40.516Z,15.71
2023-05-22T05:46:08.523Z,15.75
2023-05-22T05:48:36.283Z,15.79
2023-05-22T05:51:05.334Z,15.85
2023-05-22T05:53:33.577Z,15.90
2023-05-22T05:56:01.564Z,15.96
2023-05-22T05:58:29.364Z,16.02
2023-05-22T06:00:57.576Z,16.07
2023-05-22T06:03:28.217Z,16.12
2023-05-22T06:05:57.775Z,16.17
2023-05-22T06:08:25.527Z,16.22
2023-05-22T06:10:53.357Z,16.26
2023-05-22T06:13:21.264Z,16.31
2023-05-22T06:15:49.031Z,16.35
2023-05-22T06:18:17.603Z,16.40
2023-05-22T06:20:45.472Z,16.44
2023-05-22T06:23:13.410Z,16.48
2023-05-22T06:25:41.357Z,16.51
2023-05-22T06:28:09.373Z,16.54
2023-05-22T06:30:40.166Z,16.56
2023-05-22T06:33:09.258Z,16.60
2023-05-22T07:03:10.406Z,17.39
2023-05-22T07:05:38.391Z,17.49
2023-05-22T07:08:06.555Z,17.57
2023-05-22T07:10:34.501Z,17.65
2023-05-22T07:13:02.284Z,17.72
2023-05-22T07:15:30.059Z,17.80
2023-05-22T07:17:58.161Z,17.89
2023-05-22T07:20:26.477Z,17.98
2023-05-22T07:22:54.246Z,18.05
2023-05-22T07:25:22.080Z,18.11
2023-05-22T07:27:49.848Z,18.19
2023-05-22T07:30:17.755Z,18.27
2023-05-22T07:32:46.379Z,18.35
2023-05-22T07:35:14.365Z,18.43
2023-05-22T07:37:42.140Z,18.53
2023-05-22T07:40:11.368Z,18.63
2023-05-22T07:42:39.321Z,18.71
2023-05-22T07:45:07.616Z,18.77
2023-05-22T07:47:35.794Z,18.83
2023-05-22T07:50:04.792Z,18.91
2023-05-22T07:52:33.059Z,18.97
2023-05-22T07:55:01.014Z,19.04
2023-05-22T07:57:29.994Z,19.12
2023-05-22T07:59:59.316Z,19.22
2023-05-22T08:02:27.519Z,19.32
2023-05-22T08:04:55.794Z,19.42
2023-05-22T08:07:25.773Z,19.51
2023-05-22T08:09:53.792Z,19.60
2023-05-22T08:12:21.618Z,19.71
2023-05-22T08:14:49.536Z,19.81
2023-05-22T08:17:17.696Z,19.89
2023-05-22T08:19:46.157Z,20.00
2023-05-22T08:22:14.199Z,20.11
2023-05-22T08:24:42.077Z,20.22
2023-05-22T08:27:10.038Z,20.31
2023-05-22T08:29:38.009Z,20.39
2023-05-22T08:32:06.264Z,20.48
2023-05-22T08:34:34.380Z,20.56
2023-05-22T08:37:02.280Z,20.61
2023-05-22T08:39:31.549Z,20.66
2023-05-22T08:41:59.459Z,20.74
2023-05-22T08:44:27.345Z,20.83
2023-05-22T08:46:56.922Z,20.93
2023-05-22T08:49:27.333Z,20.99
2023-05-22T08:52:05.569Z,21.07
2023-05-22T08:54:34.646Z,21.18
2023-05-22T08:57:03.129Z,21.30
2023-05-22T08:59:31.042Z,21.39
2023-05-22T09:01:59.132Z,21.51
2023-05-22T09:04:28.555Z,21.63
2023-05-22T09:06:56.587Z,21.71
2023-05-22T09:09:24.940Z,21.76
2023-05-22T09:11:54.900Z,21.82
2023-05-22T09:14:22.864Z,21.90
2023-05-22T09:16:53.099Z,21.95
2023-05-22T09:19:21.514Z,21.98
2023-05-22T09:21:49.523Z,22.04
2023-05-22T09:24:17.380Z,22.12
2023-05-22T09:26:45.350Z,22.18
2023-05-22T09:29:13.131Z,22.24
2023-05-22T09:31:42.958Z,22.29
2023-05-22T09:34:14.373Z,22.33
2023-05-22T09:36:42.690Z,22.39
2023-05-22T09:39:11.188Z,22.43
2023-05-22T09:41:40.137Z,22.43
2023-05-22T09:44:15.616Z,22.44
2023-05-22T09:46:47.488Z,22.48
2023-05-22T09:49:17.435Z,22.54
2023-05-22T09:51:49.233Z,22.59
2023-05-22T09:54:19.745Z,22.63
2023-05-22T09:56:51.641Z,22.64
2023-05-22T09:59:21.926Z,22.66
2023-05-22T10:01:49.685Z,22.71
2023-05-22T10:04:18.901Z,22.77
2023-05-22T10:06:51.262Z,22.82
2023-05-22T10:09:22.608Z,22.84
2023-05-22T10:11:53.948Z,22.89
2023-05-22T10:14:22.580Z,22.94
2023-05-22T10:16:51.602Z,22.97
2023-05-22T10:19:19.652Z,22.99
2023-05-22T10:21:48.297Z,23.02
2023-05-22T10:24:16.326Z,23.02
2023-05-22T10:26:44.709Z,23.04
2023-05-22T10:29:17.128Z,23.04
2023-05-22T10:32:14.820Z,23.04
2023-05-22T10:34:54.540Z,23.03
2023-05-22T10:37:29.964Z,22.98
2023-05-22T10:40:05.089Z,22.93
2023-05-22T10:42:33.342Z,22.88
2023-05-22T10:45:04.678Z,22.85
2023-05-22T10:47:36.222Z,22.81
2023-05-22T10:50:11.637Z,22.78
2023-05-22T10:52:40.190Z,22.77
2023-05-22T10:55:09.439Z,22.77
2023-05-22T10:57:42.369Z,22.74
2023-05-22T11:00:15.806Z,22.72
2023-05-22T11:02:45.811Z,22.69
2023-05-22T11:05:23.178Z,22.64
2023-05-22T11:07:51.369Z,22.63
2023-05-22T11:10:51.928Z,22.63
2023-05-22T11:13:20.155Z,22.62
2023-05-22T11:15:48.532Z,22.63
2023-05-22T11:18:17.214Z,22.67
2023-05-22T11:20:46.852Z,22.73
2023-05-22T11:23:15.502Z,22.81
2023-05-22T11:25:43.365Z,22.90
2023-05-22T11:28:12.144Z,22.97
2023-05-22T11:30:40.289Z,23.00
2023-05-22T11:33:08.559Z,23.05
2023-05-22T11:35:38.029Z,23.10
2023-05-22T11:38:07.363Z,23.15
2023-05-22T11:40:35.579Z,23.21
2023-05-22T11:43:04.825Z,23.26
2023-05-22T11:45:37.582Z,23.32
2023-05-22T11:48:05.825Z,23.35
2023-05-22T11:50:42.516Z,23.40
2023-05-22T11:53:11.129Z,23.42
2023-05-22T11:55:39.029Z,23.44
2023-05-22T11:58:06.864Z,23.46
2023-05-22T12:00:34.801Z,23.44
2023-05-22T12:03:03.115Z,23.43
2023-05-22T12:05:32.376Z,23.44
2023-05-22T12:08:00.200Z,23.43
2023-05-22T12:10:28.078Z,23.42
2023-05-22T12:12:56.231Z,23.43
2023-05-22T12:15:24.817Z,23.44
2023-05-22T12:17:55.480Z,23.46
2023-05-22T12:20:23.373Z,23.48
2023-05-22T12:22:51.198Z,23.49
2023-05-22T12:25:20.372Z,23.52
2023-05-22T12:27:48.538Z,23.57
2023-05-22T12:30:17.294Z,23.59
2023-05-22T12:32:51.721Z,23.62
2023-05-22T12:35:19.956Z,23.64
2023-05-22T12:37:49.448Z,23.65
2023-05-22T12:40:17.610Z,23.63
2023-05-22T12:42:45.598Z,23.58
2023-05-22T12:45:14.102Z,23.54
2023-05-22T12:47:42.026Z,23.50
2023-05-22T12:50:10.416Z,23.50
2023-05-22T12:52:38.228Z,23.52
2023-05-22T12:55:06.596Z,23.54
2023-05-22T12:57:34.690Z,23.49
2023-05-22T13:00:02.724Z,23.48
2023-05-22T13:02:30.737Z,23.50
2023-05-22T13:04:59.491Z,23.48
2023-05-22T13:07:27.576Z,23.48
2023-05-22T13:09:55.453Z,23.49
2023-05-22T13:12:23.849Z,23.51
2023-05-22T13:14:51.850Z,23.54
2023-05-22T13:17:19.703Z,23.55
2023-05-22T13:19:47.870Z,23.57
2023-05-22T13:22:15.966Z,23.58
2023-05-22T13:24:43.852Z,23.57
2023-05-22T13:27:12.138Z,23.55
2023-05-22T13:29:40.012Z,23.57
2023-05-22T13:32:07.946Z,23.60
2023-05-22T13:34:35.862Z,23.63
2023-05-22T13:37:04.338Z,23.66
2023-05-22T13:39:32.106Z,23.67
2023-05-22T13:42:00.815Z,23.70
2023-05-22T13:44:28.612Z,23.75
2023-05-22T13:46:56.613Z,23.74
2023-05-22T13:49:24.520Z,23.73
2023-05-22T13:51:52.583Z,23.75
2023-05-22T13:54:20.689Z,23.77
2023-05-22T13:56:48.586Z,23.80
2023-05-22T13:59:16.468Z,23.82
2023-05-22T14:01:44.309Z,23.83
2023-05-22T14:04:12.265Z,23.85
2023-05-22T14:06:40.068Z,23.90
2023-05-22T14:09:09.625Z,23.94
2023-05-22T14:11:37.583Z,23.97
2023-05-22T14:14:05.636Z,23.98
2023-05-22T14:16:33.691Z,24.01
2023-05-22T14:19:01.919Z,24.04
2023-05-22T14:21:31.154Z,24.07
2023-05-22T14:23:59.168Z,24.08
2023-05-22T14:26:27.894Z,24.09
2023-05-22T14:28:55.812Z,24.12
2023-05-22T14:31:23.804Z,24.12
2023-05-22T14:33:51.858Z,24.09
2023-05-22T14:36:19.638Z,24.10
2023-05-22T14:38:47.574Z,24.09
2023-05-22T14:41:16.516Z,24.10
2023-05-22T14:43:44.315Z,24.10
2023-05-22T14:46:12.729Z,24.14
2023-05-22T14:48:40.707Z,24.16
2023-05-22T14:51:08.569Z,24.14
2023-05-22T14:53:36.380Z,24.10
2023-05-22T14:56:04.132Z,24.08
2023-05-22T14:58:32.229Z,24.07
2023-05-22T15:01:00.000Z,24.08
2023-05-22T15:03:27.877Z,24.05
2023-05-22T15:05:55.752Z,24.00
2023-05-22T15:08:23.709Z,24.02
2023-05-22T15:10:51.943Z,24.03
2023-05-22T15:13:19.790Z,24.01
2023-05-22T15:15:47.756Z,24.00
2023-05-22T15:18:16.538Z,23.96
2023-05-22T15:20:44.563Z,23.95
2023-05-22T15:23:12.323Z,23.94
2023-05-22T15:25:40.598Z,23.96
2023-05-22T15:28:08.704Z,23.98
2023-05-22T15:30:38.895Z,23.97
2023-05-22T15:33:07.347Z,23.98
2023-05-22T15:35:35.160Z,23.97
2023-05-22T15:38:03.653Z,23.99
2023-05-22T15:40:31.692Z,24.00
2023-05-22T15:43:02.071Z,24.02
2023-05-22T15:45:30.809Z,23.99
2023-05-22T15:47:58.870Z,23.96
2023-05-22T15:50:26.935Z,23.94
2023-05-22T15:52:54.811Z,23.93
2023-05-22T15:55:22.584Z,23.93
2023-05-22T15:57:50.559Z,23.91
2023-05-22T16:00:21.177Z,23.89
2023-05-22T16:02:49.739Z,23.87
2023-05-22T16:05:17.932Z,23.87
2023-05-22T16:07:46.023Z,23.85
2023-05-22T16:10:13.755Z,23.83
2023-05-22T16:12:41.739Z,23.80
2023-05-22T16:15:10.038Z,23.77
2023-05-22T16:17:38.829Z,23.75
2023-05-22T16:20:08.755Z,23.70
2023-05-22T16:22:47.947Z,23.64
2023-05-22T16:25:17.500Z,23.57
2023-05-22T16:27:45.624Z,23.52
2023-05-22T16:30:17.139Z,23.48
2023-05-22T16:32:48.847Z,23.45
2023-05-22T16:35:17.201Z,23.44
2023-05-22T16:37:45.082Z,23.39
2023-05-22T16:40:13.100Z,23.34
2023-05-22T16:42:40.987Z,23.30
2023-05-22T16:45:09.233Z,23.27
2023-05-22T16:47:37.284Z,23.24
2023-05-22T16:50:06.163Z,23.18
2023-05-22T16:52:34.041Z,23.13
2023-05-22T16:55:02.403Z,23.07
2023-05-22T16:57:30.328Z,23.02
2023-05-22T16:59:58.368Z,22.97
2023-05-22T17:02:26.507Z,22.91
2023-05-22T17:04:54.737Z,22.86
2023-05-22T17:07:22.588Z,22.81
2023-05-22T17:09:50.476Z,22.74
2023-05-22T17:12:18.390Z,22.70
2023-05-22T17:14:46.480Z,22.67
2023-05-22T17:17:14.446Z,22.63
2023-05-22T17:19:42.360Z,22.58
2023-05-22T17:22:10.109Z,22.53
2023-05-22T17:24:38.062Z,22.49
2023-05-22T17:27:06.783Z,22.46
2023-05-22T17:29:34.593Z,22.41
2023-05-22T17:32:05.049Z,22.37
2023-05-22T17:34:33.620Z,22.33
2023-05-22T17:37:01.521Z,22.28
2023-05-22T17:39:30.784Z,22.22
2023-05-22T17:42:00.369Z,22.17
2023-05-22T17:44:28.711Z,22.10
2023-05-22T17:46:56.725Z,22.04
2023-05-22T17:49:24.451Z,22.00
2023-05-22T17:51:52.448Z,21.95
2023-05-22T17:54:20.497Z,21.91
2023-05-22T17:56:48.404Z,21.85
2023-05-22T17:59:16.433Z,21.80
2023-05-22T18:01:44.440Z,21.74
2023-05-22T18:04:12.731Z,21.69
2023-05-22T18:06:40.607Z,21.67
2023-05-22T18:09:08.422Z,21.62
2023-05-22T18:11:36.348Z,21.57
2023-05-22T18:14:04.582Z,21.52
2023-05-22T18:16:32.589Z,21.48
2023-05-22T18:19:00.836Z,21.44
2023-05-22T18:21:28.917Z,21.41
2023-05-22T18:23:56.750Z,21.37
2023-05-22T18:26:24.544Z,21.33
2023-05-22T18:28:52.557Z,21.31
2023-05-22T18:31:20.715Z,21.25
2023-05-22T18:33:48.729Z,21.20
2023-05-22T18:36:16.786Z,21.15
2023-05-22T18:38:44.994Z,21.09
2023-05-22T18:41:12.910Z,21.04
2023-05-22T18:43:40.893Z,20.98
2023-05-22T18:46:09.082Z,20.95
2023-05-22T18:48:36.904Z,20.89
2023-05-22T18:51:04.694Z,20.84
2023-05-22T18:53:32.623Z,20.78
2023-05-22T18:56:00.921Z,20.73
2023-05-22T18:58:29.071Z,20.68
2023-05-22T19:00:57.066Z,20.64
2023-05-22T19:03:25.078Z,20.58
2023-05-22T19:05:53.517Z,20.54
2023-05-22T19:08:21.469Z,20.48
2023-05-22T19:10:49.425Z,20.41
2023-05-22T19:13:17.413Z,20.37
2023-05-22T19:15:45.558Z,20.32
2023-05-22T19:18:13.499Z,20.25
2023-05-22T19:20:41.710Z,20.20
2023-05-22T19:23:11.670Z,20.14
2023-05-22T19:25:40.599Z,20.08
2023-05-22T19:28:08.541Z,20.04
2023-05-22T19:30:36.403Z,19.99
2023-05-22T19:33:05.965Z,19.94
2023-05-22T19:35:35.897Z,19.88
2023-05-22T19:38:04.251Z,19.85
2023-05-22T19:40:32.189Z,19.80
2023-05-22T19:43:02.003Z,19.75
2023-05-22T19:45:29.929Z,19.69
2023-05-22T19:47:57.951Z,19.65
2023-05-22T19:50:26.035Z,19.61
2023-05-22T19:52:54.078Z,19.56
2023-05-22T19:55:22.102Z,19.49
2023-05-22T19:57:50.002Z,19.43
2023-05-22T20:00:18.392Z,19.38
2023-05-22T20:02:47.517Z,19.34
2023-05-22T20:05:16.015Z,19.29
2023-05-22T20:07:43.847Z,19.26
2023-05-22T20:10:11.921Z,19.22
2023-05-22T20:12:40.823Z,19.16
2023-05-22T20:15:10.716Z,19.11
2023-05-22T20:17:41.477Z,19.05
2023-05-22T20:20:10.957Z,18.99
2023-05-22T20:22:38.799Z,18.96
2023-05-22T20:25:08.811Z,18.92
2023-05-22T20:27:37.508Z,18.87
2023-05-22T20:30:07.601Z,18.81
2023-05-22T20:32:35.489Z,18.77
2023-05-22T20:35:04.239Z,18.73
2023-05-22T20:37:35.105Z,18.69
2023-05-22T20:40:03.660Z,18.66
2023-05-22T20:42:32.001Z,18.63
2023-05-22T20:44:59.797Z,18.60
2023-05-22T20:47:27.877Z,18.54
2023-05-22T20:49:56.045Z,18.49
2023-05-22T20:52:24.742Z,18.44
2023-05-22T20:54:52.759Z,18.40
2023-05-22T20:57:20.731Z,18.39
2023-05-22T20:59:48.487Z,18.36
2023-05-22T21:02:17.878Z,18.34
2023-05-22T21:04:45.849Z,18.30
2023-05-22T21:07:13.987Z,18.27
2023-05-22T21:09:41.976Z,18.27
2023-05-22T21:12:09.812Z,18.27
2023-05-22T21:14:37.562Z,18.27
2023-05-22T21:17:05.638Z,18.27
2023-05-22T21:19:33.700Z,18.25
2023-05-22T21:22:01.849Z,18.24
2023-05-22T21:24:31.245Z,18.22
2023-05-22T21:26:59.149Z,18.20
2023-05-22T21:29:27.117Z,18.19
2023-05-22T21:31:55.166Z,18.19
2023-05-22T21:34:23.201Z,18.16
2023-05-22T21:36:51.269Z,18.16
2023-05-22T21:39:19.105Z,18.14
2023-05-22T21:41:48.643Z,18.12
2023-05-22T21:44:18.771Z,18.09
2023-05-22T21:46:46.782Z,18.04
2023-05-22T21:49:15.158Z,18.01
2023-05-22T21:51:42.979Z,17.97
2023-05-22T21:54:10.794Z,17.94
2023-05-22T21:56:38.827Z,17.88
2023-05-22T21:59:06.840Z,17.84
2023-05-22T22:01:35.058Z,17.81
2023-05-22T22:04:03.224Z,17.78
2023-05-22T22:06:31.492Z,17.76
2023-05-22T22:09:00.541Z,17.73
2023-05-22T22:11:28.276Z,17.69
2023-05-22T22:13:56.532Z,17.66
2023-05-22T22:16:24.785Z,17.63
2023-05-22T22:18:53.373Z,17.61
2023-05-22T22:21:21.673Z,17.58
2023-05-22T22:23:49.553Z,17.54
2023-05-22T22:26:18.257Z,17.52
2023-05-22T22:28:46.470Z,17.48
2023-05-22T22:31:14.363Z,17.46
2023-05-22T22:33:42.508Z,17.41
2023-05-22T22:36:10.669Z,17.38
2023-05-22T22:38:38.653Z,17.35
2023-05-22T22:41:09.423Z,17.31
2023-05-22T22:43:37.445Z,17.27
2023-05-22T22:46:05.506Z,17.23
2023-05-22T22:48:33.952Z,17.18
2023-05-22T22:51:02.933Z,17.13
2023-05-22T22:53:30.695Z,17.10
2023-05-22T22:55:59.444Z,17.05
2023-05-22T22:58:27.319Z,16.99
2023-05-22T23:00:55.237Z,16.94
2023-05-22T23:03:23.275Z,16.89
2023-05-22T23:05:51.333Z,16.84
2023-05-22T23:08:20.485Z,16.81
2023-05-22T23:10:48.380Z,16.76
2023-05-22T23:13:16.507Z,16.72
2023-05-22T23:15:44.498Z,16.68
2023-05-22T23:18:14.158Z,16.61
2023-05-22T23:20:42.047Z,16.57
2023-05-22T23:23:09.961Z,16.53
2023-05-22T23:25:38.233Z,16.49
2023-05-22T23:28:07.268Z,16.46
2023-05-22T23:30:35.120Z,16.43
2023-05-22T23:33:03.062Z,16.41
2023-05-22T23:35:31.259Z,16.37
2023-05-22T23:37:59.274Z,16.31
2023-05-22T23:40:27.130Z,16.28
2023-05-22T23:42:54.884Z,16.26
2023-05-22T23:45:22.615Z,16.24
2023-05-22T23:47:50.675Z,16.21
2023-05-22T23:50:18.393Z,16.18
2023-05-22T23:52:48.417Z,16.14
2023-05-22T23:55:16.329Z,16.10
2023-05-22T23:57:44.202Z,16.08
